createdAt,value
2022-10-06T00:00:46.574Z,101071.38
2022-10-06T00:03:14.586Z,101072.84
2022-10-06T00:05:42.542Z,101068.03
2022-10-06T00:08:10.916Z,101065.63
2022-10-06T00:10:40.133Z,101057.88
2022-10-06T00:13:09.715Z,101057.03
2022-10-06T00:15:37.727Z,101062.50
2022-10-06T00:18:05.821Z,101054.16
2022-10-06T00:20:33.755Z,101055.31
2022-10-06T00:23:01.749Z,101061.53
2022-10-06T00:25:29.735Z,101053.63
2022-10-06T00:27:57.731Z,101042.59
2022-10-06T00:30:28.481Z,101056.16
2022-10-06T00:32:57.670Z,101061.78
2022-10-06T00:35:25.847Z,101059.09
2022-10-06T00:37:54.037Z,101050.63
2022-10-06T00:40:22.076Z,101048.22
2022-10-06T00:42:51.915Z,101043.09
2022-10-06T00:45:21.626Z,101043.53
2022-10-06T00:47:50.961Z,101040.25
2022-10-06T00:50:18.935Z,101040.50
2022-10-06T00:52:46.939Z,101042.19
2022-10-06T00:55:15.443Z,101042.19
2022-10-06T00:57:43.445Z,101044.19
2022-10-06T01:00:12.457Z,101040.50
2022-10-06T01:02:42.721Z,101039.09
2022-10-06T01:05:14.587Z,101036.28
2022-10-06T01:07:42.575Z,101007.44
2022-10-06T01:10:10.679Z,101036.84
2022-10-06T01:12:38.667Z,101038.53
2022-10-06T01:15:08.145Z,101025.88
2022-10-06T01:17:37.808Z,101037.44
2022-10-06T01:20:08.971Z,101040.38
2022-10-06T01:22:38.880Z,101032.63
2022-10-06T01:25:08.666Z,101033.72
2022-10-06T01:27:37.197Z,101020.84
2022-10-06T01:30:05.777Z,101024.97
2022-10-06T01:32:34.926Z,101030.06
2022-10-06T01:35:02.901Z,101029.47
2022-10-06T01:37:30.880Z,101002.47
2022-10-06T01:40:00.186Z,101017.47
2022-10-06T01:42:31.847Z,101025.09
2022-10-06T01:44:59.923Z,101018.50
2022-10-06T01:47:27.995Z,101023.16
2022-10-06T01:49:56.263Z,101023.28
2022-10-06T01:52:24.338Z,101021.84
2022-10-06T01:54:52.285Z,101025.75
2022-10-06T01:57:21.873Z,101018.72
2022-10-06T01:59:54.577Z,101020.66
2022-10-06T02:02:23.229Z,101022.34
2022-10-06T02:04:51.188Z,101021.50
2022-10-06T02:07:19.151Z,101017.00
2022-10-06T02:09:47.151Z,101022.66
2022-10-06T02:12:15.459Z,101024.59
2022-10-06T02:14:44.768Z,101025.09
2022-10-06T02:17:12.860Z,101028.19
2022-10-06T02:19:40.840Z,101027.56
2022-10-06T02:22:08.865Z,101029.81
2022-10-06T02:24:36.845Z,101031.31
2022-10-06T02:27:05.320Z,101026.22
2022-10-06T02:29:33.277Z,101020.38
2022-10-06T02:32:02.656Z,101019.81
2022-10-06T02:34:30.616Z,101017.78
2022-10-06T02:36:58.556Z,101016.78
2022-10-06T02:39:26.501Z,101014.38
2022-10-06T02:41:54.485Z,101003.69
2022-10-06T02:44:23.375Z,101000.28
2022-10-06T02:46:51.432Z,101005.50
2022-10-06T02:49:20.856Z,100997.41
2022-10-06T02:51:48.848Z,101006.72
2022-10-06T02:54:16.808Z,101016.06
2022-10-06T02:56:45.513Z,101010.00
2022-10-06T02:59:13.861Z,101007.31
2022-10-06T03:01:41.942Z,101008.06
2022-10-06T03:04:11.745Z,101005.69
2022-10-06T03:06:41.680Z,101010.44
2022-10-06T03:09:10.089Z,101003.69
2022-10-06T03:11:39.020Z,101009.34
2022-10-06T03:14:07.180Z,100986.69
2022-10-06T03:16:36.044Z,101012.16
2022-10-06T03:19:04.087Z,101006.22
2022-10-06T03:21:32.847Z,101005.63
2022-10-06T03:24:02.158Z,101011.09
2022-10-06T03:26:31.025Z,101012.91
2022-10-06T03:28:59.121Z,101005.41
2022-10-06T03:31:27.137Z,101008.09
2022-10-06T03:33:56.830Z,101010.63
2022-10-06T03:36:25.628Z,100977.97
2022-10-06T03:38:53.643Z,101000.78
2022-10-06T03:41:23.586Z,101002.50
2022-10-06T03:43:52.276Z,101012.91
2022-10-06T03:46:21.173Z,101002.50
2022-10-06T03:48:49.393Z,100988.31
2022-10-06T03:51:18.619Z,101007.25
2022-10-06T03:53:47.036Z,101017.09
2022-10-06T03:56:15.972Z,101020.97
2022-10-06T03:58:45.930Z,101011.03
2022-10-06T04:01:15.132Z,101028.03
2022-10-06T04:03:43.255Z,101025.34
2022-10-06T04:06:13.386Z,101026.47
2022-10-06T04:08:41.737Z,101023.19
2022-10-06T04:11:11.272Z,101018.81
2022-10-06T04:13:39.320Z,101028.53
2022-10-06T04:16:16.067Z,101025.88
2022-10-06T04:18:44.166Z,101021.50
2022-10-06T04:21:12.176Z,101014.44
2022-10-06T04:23:40.218Z,101013.72
2022-10-06T04:26:09.997Z,101022.94
2022-10-06T04:28:38.978Z,101024.38
2022-10-06T04:31:08.408Z,101021.59
2022-10-06T04:33:37.910Z,101024.75
2022-10-06T04:36:06.781Z,101025.06
2022-10-06T04:38:34.918Z,101026.50
2022-10-06T04:41:07.082Z,101029.13
2022-10-06T04:43:35.248Z,101032.72
2022-10-06T04:46:18.153Z,101031.22
2022-10-06T04:48:52.811Z,101030.88
2022-10-06T04:51:21.460Z,101033.84
2022-10-06T04:53:49.561Z,101040.94
2022-10-06T04:56:18.554Z,101015.59
2022-10-06T04:58:47.217Z,101023.97
2022-10-06T05:01:15.798Z,101031.28
2022-10-06T05:03:43.848Z,101032.28
2022-10-06T05:06:14.183Z,101038.94
2022-10-06T05:08:42.245Z,101037.75
2022-10-06T05:11:15.249Z,101031.13
2022-10-06T05:13:46.220Z,101034.31
2022-10-06T05:16:15.507Z,101032.25
2022-10-06T05:18:43.595Z,101036.16
2022-10-06T05:21:14.695Z,101031.22
2022-10-06T05:23:43.402Z,101034.91
2022-10-06T05:26:12.106Z,101042.72
2022-10-06T05:28:40.216Z,101037.63
2022-10-06T05:31:09.450Z,101052.41
2022-10-06T05:33:37.416Z,101048.25
2022-10-06T05:36:06.378Z,101039.34
2022-10-06T05:38:35.743Z,101046.53
2022-10-06T05:41:04.100Z,101041.25
2022-10-06T05:43:32.212Z,101040.84
2022-10-06T05:46:00.866Z,101035.88
2022-10-06T05:48:29.168Z,101034.78
2022-10-06T05:51:00.724Z,101040.84
2022-10-06T05:53:28.886Z,101024.44
2022-10-06T05:56:08.119Z,101030.09
2022-10-06T05:58:36.447Z,101032.19
2022-10-06T06:01:08.871Z,101028.97
2022-10-06T06:03:36.935Z,101024.09
2022-10-06T06:06:05.075Z,101027.75
2022-10-06T06:08:33.385Z,101031.16
2022-10-06T06:11:09.211Z,101027.66
2022-10-06T06:13:37.277Z,101036.47
2022-10-06T06:16:06.116Z,101037.81
2022-10-06T06:18:34.351Z,101040.41
2022-10-06T06:21:03.180Z,101035.91
2022-10-06T06:23:32.709Z,101038.25
2022-10-06T06:26:02.594Z,101036.59
2022-10-06T06:28:32.821Z,101034.44
2022-10-06T06:31:03.643Z,101043.75
2022-10-06T06:33:31.956Z,101040.03
2022-10-06T06:36:02.812Z,101037.34
2022-10-06T06:38:32.744Z,101040.22
2022-10-06T06:41:00.881Z,101037.50
2022-10-06T06:43:29.626Z,101045.44
2022-10-06T06:46:04.709Z,101048.97
2022-10-06T06:48:33.195Z,101060.78
2022-10-06T06:51:01.437Z,101050.47
2022-10-06T06:53:29.487Z,101053.00
2022-10-06T06:55:58.089Z,101058.22
2022-10-06T06:58:26.308Z,101062.63
2022-10-06T07:00:54.623Z,101055.66
2022-10-06T07:03:52.206Z,101062.94
2022-10-06T07:06:13.254Z,101053.44
2022-10-06T07:08:42.776Z,101050.03
2022-10-06T07:11:15.395Z,101056.44
2022-10-06T07:13:43.571Z,101050.56
2022-10-06T07:16:29.663Z,101050.25
2022-10-06T07:19:20.088Z,101042.09
2022-10-06T07:22:08.818Z,101047.78
2022-10-06T07:24:54.257Z,101042.59
2022-10-06T07:27:22.227Z,101037.31
2022-10-06T07:29:54.526Z,101041.84
2022-10-06T07:32:22.813Z,101039.28
2022-10-06T07:34:52.545Z,101042.78
2022-10-06T07:37:20.922Z,101039.72
2022-10-06T07:39:49.748Z,101040.66
2022-10-06T07:42:18.189Z,101038.16
2022-10-06T07:45:06.740Z,101040.47
2022-10-06T07:47:34.799Z,101033.13
2022-10-06T07:50:04.280Z,101035.25
2022-10-06T07:52:32.726Z,101034.72
2022-10-06T07:55:00.727Z,101023.09
2022-10-06T07:57:34.864Z,101021.88
2022-10-06T08:00:05.568Z,101000.34
2022-10-06T08:02:35.797Z,101026.09
2022-10-06T08:05:07.213Z,101030.63
2022-10-06T08:07:35.307Z,101019.19
2022-10-06T08:10:03.306Z,101022.63
2022-10-06T08:12:40.159Z,101021.47
2022-10-06T08:15:11.430Z,101015.53
2022-10-06T08:17:39.425Z,101014.88
2022-10-06T08:20:10.317Z,101007.25
2022-10-06T08:22:38.872Z,101005.34
2022-10-06T08:25:07.853Z,101014.88
2022-10-06T08:27:36.327Z,101010.88
2022-10-06T08:30:04.719Z,101001.69
2022-10-06T08:32:33.149Z,101001.38
2022-10-06T08:35:01.097Z,101000.00
2022-10-06T08:37:30.599Z,101000.28
2022-10-06T08:39:58.563Z,101001.03
2022-10-06T08:42:37.678Z,100976.31
2022-10-06T08:45:07.790Z,100996.84
2022-10-06T08:47:36.424Z,100989.06
2022-10-06T08:50:06.205Z,100982.56
2022-10-06T08:52:44.618Z,100993.34
2022-10-06T08:55:19.813Z,100995.47
2022-10-06T08:57:52.121Z,100987.50
2022-10-06T09:00:21.417Z,100990.94
2022-10-06T09:02:50.307Z,100994.31
2022-10-06T09:05:25.590Z,100996.81
2022-10-06T09:08:03.564Z,100969.13
2022-10-06T09:10:40.277Z,100998.97
2022-10-06T09:13:10.418Z,101000.03
2022-10-06T09:15:41.006Z,100995.19
2022-10-06T09:18:10.919Z,100999.81
2022-10-06T09:20:42.629Z,100993.09
2022-10-06T09:23:15.330Z,101001.06
2022-10-06T09:25:43.277Z,100999.38
2022-10-06T09:28:14.147Z,100996.84
2022-10-06T09:30:42.989Z,100993.06
2022-10-06T09:33:15.837Z,100979.41
2022-10-06T09:36:06.328Z,100987.75
2022-10-06T09:38:54.399Z,100982.84
2022-10-06T09:41:26.622Z,100980.25
2022-10-06T09:43:57.928Z,100975.41
2022-10-06T09:46:33.485Z,100973.88
2022-10-06T09:49:08.946Z,100976.41
2022-10-06T09:51:38.181Z,100968.25
2022-10-06T09:54:15.284Z,100961.91
2022-10-06T09:56:43.426Z,100959.47
2022-10-06T09:59:20.385Z,100959.53
2022-10-06T10:01:55.396Z,100957.31
2022-10-06T10:04:24.856Z,100955.66
2022-10-06T10:06:53.427Z,100953.06
2022-10-06T10:09:26.245Z,100959.91
2022-10-06T10:12:27.558Z,100949.31
2022-10-06T10:14:59.012Z,100956.81
2022-10-06T10:17:39.055Z,100947.97
2022-10-06T10:20:09.486Z,100927.28
2022-10-06T10:22:38.396Z,100935.28
2022-10-06T10:25:13.891Z,100934.03
2022-10-06T10:27:46.285Z,100932.53
2022-10-06T10:30:14.836Z,100927.91
2022-10-06T10:33:01.843Z,100918.53
2022-10-06T10:35:30.748Z,100915.78
2022-10-06T10:38:02.097Z,100924.13
2022-10-06T10:40:34.256Z,100921.22
2022-10-06T10:43:05.895Z,100917.41
2022-10-06T10:45:35.196Z,100919.25
2022-10-06T10:48:06.057Z,100901.78
2022-10-06T10:50:35.249Z,100912.75
2022-10-06T10:53:08.693Z,100913.03
2022-10-06T10:55:42.059Z,100898.69
2022-10-06T10:58:14.786Z,100893.31
2022-10-06T11:00:43.787Z,100895.38
2022-10-06T11:03:11.912Z,100899.78
2022-10-06T11:06:08.298Z,100898.16
2022-10-06T11:08:38.151Z,100880.72
2022-10-06T11:11:11.716Z,100892.31
2022-10-06T11:13:40.863Z,100890.91
2022-10-06T11:16:19.647Z,100895.34
2022-10-06T11:18:55.639Z,100894.63
2022-10-06T11:21:26.119Z,100884.00
2022-10-06T11:23:56.376Z,100883.38
2022-10-06T11:26:39.473Z,100878.25
2022-10-06T11:29:10.702Z,100870.72
2022-10-06T11:31:42.191Z,100861.53
2022-10-06T11:34:10.159Z,100875.84
2022-10-06T11:36:43.417Z,100860.75
2022-10-06T11:39:18.064Z,100870.03
2022-10-06T11:41:49.562Z,100870.63
2022-10-06T11:44:27.636Z,100869.94
2022-10-06T11:46:57.168Z,100860.44
2022-10-06T11:49:50.299Z,100858.16
2022-10-06T11:52:46.503Z,100854.41
2022-10-06T11:55:19.060Z,100844.97
2022-10-06T11:58:41.867Z,100858.16
2022-10-06T12:00:58.856Z,100835.88
2022-10-06T12:03:50.748Z,100846.00
2022-10-06T12:07:00.891Z,100839.00
2022-10-06T12:09:51.735Z,100829.72
2022-10-06T12:13:01.800Z,100831.53
2022-10-06T12:19:03.749Z,100810.59
2022-10-06T12:21:40.179Z,100821.03
2022-10-06T12:24:25.682Z,100826.91
2022-10-06T12:27:04.886Z,100823.63
2022-10-06T12:29:38.103Z,100817.97
2022-10-06T12:32:15.946Z,100813.78
2022-10-06T12:35:14.907Z,100806.72
2022-10-06T12:37:50.083Z,100802.91
2022-10-06T12:40:42.325Z,100802.44
2022-10-06T12:43:41.886Z,100796.81
2022-10-06T12:46:16.373Z,100799.53
2022-10-06T12:48:51.814Z,100793.19
2022-10-06T12:51:25.808Z,100795.06
2022-10-06T12:53:58.796Z,100793.22
2022-10-06T12:56:30.958Z,100790.91
2022-10-06T12:58:58.956Z,100795.06
2022-10-06T13:01:27.375Z,100789.06
2022-10-06T13:03:56.759Z,100787.94
2022-10-06T13:06:25.399Z,100795.66
2022-10-06T13:09:07.155Z,100796.25
2022-10-06T13:11:35.137Z,100787.03
2022-10-06T13:14:10.165Z,100791.75
2022-10-06T13:16:41.028Z,100781.25
2022-10-06T13:19:18.369Z,100750.09
2022-10-06T13:21:46.963Z,100781.44
2022-10-06T13:24:16.819Z,100781.25
2022-10-06T13:26:44.849Z,100773.25
2022-10-06T13:29:21.408Z,100777.84
2022-10-06T13:31:52.808Z,100777.44
2022-10-06T13:34:25.399Z,100771.97
2022-10-06T13:36:53.499Z,100773.66
2022-10-06T13:39:23.022Z,100760.72
2022-10-06T13:41:51.951Z,100765.66
2022-10-06T13:44:32.268Z,100769.97
2022-10-06T13:47:01.861Z,100770.88
2022-10-06T13:49:32.556Z,100759.59
2022-10-06T13:52:02.286Z,100757.31
2022-10-06T13:54:40.407Z,100764.16
2022-10-06T13:57:36.070Z,100752.59
2022-10-06T14:00:06.488Z,100764.13
2022-10-06T14:02:35.318Z,100761.88
2022-10-06T14:05:24.645Z,100766.59
2022-10-06T14:07:52.650Z,100754.47
2022-10-06T14:10:22.454Z,100756.22
2022-10-06T14:12:50.434Z,100753.78
2022-10-06T14:15:19.427Z,100752.59
2022-10-06T14:17:47.363Z,100753.88
2022-10-06T14:20:46.889Z,100748.03
2022-10-06T14:23:43.586Z,100752.50
2022-10-06T14:26:12.895Z,100756.13
2022-10-06T14:28:41.179Z,100747.75
2022-10-06T14:31:14.301Z,100756.38
2022-10-06T14:33:42.917Z,100751.97
2022-10-06T14:36:20.380Z,100749.41
2022-10-06T14:38:49.486Z,100749.41
2022-10-06T14:41:19.382Z,100731.88
2022-10-06T14:43:48.485Z,100749.03
2022-10-06T14:46:16.479Z,100740.06
2022-10-06T14:48:44.457Z,100734.84
2022-10-06T14:51:12.435Z,100747.25
2022-10-06T14:53:41.800Z,100742.03
2022-10-06T14:56:11.245Z,100736.66
2022-10-06T14:58:39.902Z,100740.38
2022-10-06T15:01:08.537Z,100743.16
2022-10-06T15:03:36.783Z,100743.78
2022-10-06T15:06:22.896Z,100722.22
2022-10-06T15:08:52.581Z,100704.88
2022-10-06T15:11:20.920Z,100722.69
2022-10-06T15:13:48.868Z,100752.44
2022-10-06T15:16:17.035Z,100750.59
2022-10-06T15:18:44.980Z,100753.50
2022-10-06T15:21:13.041Z,100754.13
2022-10-06T15:23:40.996Z,100753.91
2022-10-06T15:26:28.580Z,100731.25
2022-10-06T15:29:03.029Z,100754.25
2022-10-06T15:31:32.869Z,100754.66
2022-10-06T15:34:02.035Z,100718.09
2022-10-06T15:36:30.545Z,100752.88
2022-10-06T15:38:59.446Z,100704.53
2022-10-06T15:41:28.807Z,100754.38
2022-10-06T15:43:57.248Z,100755.56
2022-10-06T15:46:30.437Z,100729.00
2022-10-06T15:49:00.991Z,100739.78
2022-10-06T15:51:29.613Z,100736.31
2022-10-06T15:53:58.936Z,100763.88
2022-10-06T15:56:29.382Z,100756.97
2022-10-06T15:58:57.372Z,100742.13
2022-10-06T16:01:36.965Z,100763.47
2022-10-06T16:04:11.386Z,100769.59
2022-10-06T16:06:49.475Z,100768.88
2022-10-06T16:09:18.268Z,100785.28
2022-10-06T16:11:47.874Z,100782.19
2022-10-06T16:14:15.925Z,100781.09
2022-10-06T16:16:44.238Z,100775.13
2022-10-06T16:19:12.263Z,100780.44
2022-10-06T16:21:40.360Z,100778.69
2022-10-06T16:24:08.421Z,100777.06
2022-10-06T16:26:36.540Z,100785.31
2022-10-06T16:29:05.952Z,100782.31
2022-10-06T16:31:34.009Z,100775.03
2022-10-06T16:34:02.070Z,100787.53
2022-10-06T16:36:30.054Z,100792.47
2022-10-06T16:38:58.049Z,100788.28
2022-10-06T16:41:26.012Z,100788.16
2022-10-06T16:43:54.643Z,100788.56
2022-10-06T16:46:26.119Z,100787.81
2022-10-06T16:48:54.869Z,100796.28
2022-10-06T16:51:23.467Z,100795.34
2022-10-06T16:53:51.985Z,100802.81
2022-10-06T16:56:21.302Z,100798.13
2022-10-06T16:58:50.411Z,100804.94
2022-10-06T17:01:18.609Z,100803.81
2022-10-06T17:03:48.048Z,100802.97
2022-10-06T17:06:16.844Z,100803.31
2022-10-06T17:08:45.321Z,100800.28
2022-10-06T17:11:14.563Z,100804.41
2022-10-06T17:13:46.528Z,100805.13
2022-10-06T17:16:15.399Z,100806.84
2022-10-06T17:18:43.422Z,100803.19
2022-10-06T17:21:39.588Z,100804.22
2022-10-06T17:24:01.607Z,100812.41
2022-10-06T17:26:30.212Z,100796.56
2022-10-06T17:28:59.572Z,100807.94
2022-10-06T17:31:32.524Z,100814.88
2022-10-06T17:34:00.539Z,100812.53
2022-10-06T17:36:30.282Z,100814.59
2022-10-06T17:39:01.582Z,100811.88
2022-10-06T17:41:30.618Z,100818.59
2022-10-06T17:44:01.283Z,100819.28
2022-10-06T17:46:29.284Z,100809.13
2022-10-06T17:48:57.504Z,100818.56
2022-10-06T17:51:28.347Z,100824.63
2022-10-06T17:53:58.409Z,100824.00
2022-10-06T17:56:27.438Z,100822.31
2022-10-06T17:58:56.021Z,100823.53
2022-10-06T18:01:24.952Z,100828.44
2022-10-06T18:03:53.727Z,100828.44
2022-10-06T18:06:21.714Z,100843.31
2022-10-06T18:08:49.817Z,100842.31
2022-10-06T18:11:35.771Z,100850.78
2022-10-06T18:14:05.175Z,100843.53
2022-10-06T18:16:36.544Z,100846.44
2022-10-06T18:19:06.481Z,100849.78
2022-10-06T18:21:37.368Z,100849.78
2022-10-06T18:24:06.317Z,100857.72
2022-10-06T18:26:38.418Z,100842.34
2022-10-06T18:29:07.824Z,100852.81
2022-10-06T18:31:35.929Z,100852.81
2022-10-06T18:36:52.845Z,100857.25
2022-10-06T18:39:20.798Z,100850.53
2022-10-06T18:41:51.207Z,100853.25
2022-10-06T18:44:39.685Z,100859.03
2022-10-06T18:47:25.093Z,100861.41
2022-10-06T18:49:53.468Z,100861.75
2022-10-06T18:52:22.686Z,100868.00
2022-10-06T18:54:50.821Z,100872.53
2022-10-06T18:57:23.842Z,100879.13
2022-10-06T18:59:55.075Z,100878.28
2022-10-06T19:02:23.319Z,100880.97
2022-10-06T19:04:52.122Z,100873.19
2022-10-06T19:07:20.064Z,100863.94
2022-10-06T19:09:47.983Z,100875.56
2022-10-06T19:12:15.984Z,100881.28
2022-10-06T19:14:47.791Z,100886.19
2022-10-06T19:17:16.035Z,100887.69
2022-10-06T19:19:45.302Z,100886.66
2022-10-06T19:22:14.325Z,100884.28
2022-10-06T19:24:43.331Z,100889.34
2022-10-06T19:27:12.413Z,100886.63
2022-10-06T19:29:42.538Z,100895.38
2022-10-06T19:32:11.952Z,100892.66
2022-10-06T19:34:40.114Z,100895.00
2022-10-06T19:37:08.058Z,100911.50
2022-10-06T19:39:42.816Z,100915.53
2022-10-06T19:42:28.894Z,100910.78
2022-10-06T19:44:56.835Z,100913.13
2022-10-06T19:47:27.062Z,100908.91
2022-10-06T19:49:58.850Z,100913.75
2022-10-06T19:52:27.814Z,100914.09
2022-10-06T19:54:55.749Z,100914.72
2022-10-06T19:57:23.744Z,100915.06
2022-10-06T19:59:51.767Z,100917.34
2022-10-06T20:02:19.873Z,100918.69
2022-10-06T20:04:50.144Z,100919.69
2022-10-06T20:07:21.754Z,100925.38
2022-10-06T20:09:49.783Z,100924.19
2022-10-06T20:12:20.967Z,100926.31
2022-10-06T20:14:53.473Z,100926.63
2022-10-06T20:17:22.305Z,100923.28
2022-10-06T20:19:56.636Z,100922.75
2022-10-06T20:22:25.607Z,100918.50
2022-10-06T20:24:53.572Z,100922.53
2022-10-06T20:27:21.554Z,100923.38
2022-10-06T20:29:49.502Z,100923.16
2022-10-06T20:32:17.471Z,100921.78
2022-10-06T20:34:45.442Z,100920.41
2022-10-06T20:37:14.826Z,100918.00
2022-10-06T20:40:00.216Z,100918.50
2022-10-06T20:42:28.150Z,100915.09
2022-10-06T20:44:56.138Z,100913.91
2022-10-06T20:47:24.111Z,100917.25
2022-10-06T20:49:55.394Z,100916.44
2022-10-06T20:52:24.960Z,100913.75
2022-10-06T20:54:52.893Z,100911.19
2022-10-06T20:57:20.907Z,100912.06
2022-10-06T20:59:49.136Z,100911.19
2022-10-06T21:02:17.102Z,100907.81
2022-10-06T21:04:45.194Z,100900.44
2022-10-06T21:07:13.206Z,100906.41
2022-10-06T21:09:42.557Z,100902.22
2022-10-06T21:12:10.528Z,100902.38
2022-10-06T21:14:42.201Z,100907.06
2022-10-06T21:17:10.143Z,100908.34
2022-10-06T21:19:38.185Z,100915.34
2022-10-06T21:22:06.177Z,100914.84
2022-10-06T21:24:34.100Z,100916.84
2022-10-06T21:27:03.436Z,100922.66
2022-10-06T21:29:31.395Z,100920.44
2022-10-06T21:31:59.723Z,100922.28
2022-10-06T21:34:27.672Z,100926.28
2022-10-06T21:36:55.649Z,100923.56
2022-10-06T21:39:23.603Z,100917.50
2022-10-06T21:41:51.567Z,100917.81
2022-10-06T21:44:20.895Z,100915.84
2022-10-06T21:46:49.901Z,100912.44
2022-10-06T21:49:18.951Z,100919.34
2022-10-06T21:51:48.353Z,100912.13
2022-10-06T21:54:16.403Z,100913.81
2022-10-06T21:56:44.379Z,100910.13
2022-10-06T21:59:12.467Z,100886.16
2022-10-06T22:01:42.609Z,100908.13
2022-10-06T22:04:11.748Z,100900.78
2022-10-06T22:06:39.676Z,100904.75
2022-10-06T22:09:08.622Z,100905.91
2022-10-06T22:11:38.590Z,100903.13
2022-10-06T22:14:07.367Z,100898.91
2022-10-06T22:16:35.817Z,100903.97
2022-10-06T22:19:06.376Z,100906.28
2022-10-06T22:21:35.279Z,100903.53
2022-10-06T22:24:03.941Z,100896.88
2022-10-06T22:26:32.714Z,100895.66
2022-10-06T22:29:00.986Z,100901.94
2022-10-06T22:31:30.943Z,100900.53
2022-10-06T22:33:59.831Z,100900.13
2022-10-06T22:36:29.567Z,100905.94
2022-10-06T22:38:57.735Z,100908.78
2022-10-06T22:41:25.785Z,100908.78
2022-10-06T22:43:57.247Z,100905.00
2022-10-06T22:46:25.366Z,100901.59
2022-10-06T22:48:53.353Z,100900.22
2022-10-06T22:51:21.367Z,100912.81
2022-10-06T22:53:57.261Z,100905.50
2022-10-06T22:56:26.093Z,100903.25
2022-10-06T22:58:54.030Z,100915.44
2022-10-06T23:01:22.084Z,100918.00
2022-10-06T23:03:50.080Z,100913.91
2022-10-06T23:06:18.724Z,100917.59
2022-10-06T23:08:46.721Z,100925.97
2022-10-06T23:11:16.579Z,100926.81
2022-10-06T23:13:44.634Z,100929.09
2022-10-06T23:16:13.207Z,100927.41
2022-10-06T23:18:41.840Z,100932.19
2022-10-06T23:21:10.534Z,100936.75
2022-10-06T23:23:38.612Z,100934.47
2022-10-06T23:26:07.493Z,100929.13
2022-10-06T23:28:36.958Z,100921.19
2022-10-06T23:31:05.144Z,100932.25
2022-10-06T23:33:33.328Z,100927.16
2022-10-06T23:36:01.379Z,100929.13
2022-10-06T23:38:29.429Z,100929.72
2022-10-06T23:40:57.396Z,100925.34
2022-10-06T23:43:25.437Z,100931.25
2022-10-06T23:45:54.896Z,100925.22
2022-10-06T23:48:22.859Z,100931.84
2022-10-06T23:51:00.424Z,100940.16
2022-10-06T23:53:28.504Z,100934.09
2022-10-06T23:55:56.426Z,100944.66
2022-10-06T23:58:24.441Z,100949.22
